sensor_id;sensor_type;location;lat;lon;timestamp;P1;durP1;ratioP1;P2;durP2;ratioP2
61696;SDS011;47610;52.252;20.922;2022-12-07T00:00:37;20.70;;;11.20;;
61696;SDS011;47610;52.252;20.922;2022-12-07T00:05:59;24.50;;;12.20;;
61696;SDS011;47610;52.252;20.922;2022-12-07T00:11:23;19.80;;;11.20;;
61696;SDS011;47610;52.252;20.922;2022-12-07T00:16:48;27.40;;;12.70;;
61696;SDS011;47610;52.252;20.922;2022-12-07T00:22:12;24.70;;;13.10;;
61696;SDS011;47610;52.252;20.922;2022-12-07T00:27:35;22.60;;;11.90;;
61696;SDS011;47610;52.252;20.922;2022-12-07T00:32:57;20.80;;;12.30;;
61696;SDS011;47610;52.252;20.922;2022-12-07T00:38:20;26.20;;;14.40;;
61696;SDS011;47610;52.252;20.922;2022-12-07T00:43:43;25.90;;;14.20;;
61696;SDS011;47610;52.252;20.922;2022-12-07T00:49:09;33.60;;;17.00;;
61696;SDS011;47610;52.252;20.922;2022-12-07T00:54:31;38.20;;;18.60;;
61696;SDS011;47610;52.252;20.922;2022-12-07T00:59:54;29.20;;;15.80;;
61696;SDS011;47610;52.252;20.922;2022-12-07T01:05:18;37.70;;;18.60;;
61696;SDS011;47610;52.252;20.922;2022-12-07T01:10:42;37.60;;;18.70;;
61696;SDS011;47610;52.252;20.922;2022-12-07T01:16:10;34.90;;;16.40;;
61696;SDS011;47610;52.252;20.922;2022-12-07T01:21:35;37.00;;;17.30;;
61696;SDS011;47610;52.252;20.922;2022-12-07T01:26:59;32.20;;;15.70;;
61696;SDS011;47610;52.252;20.922;2022-12-07T01:32:21;39.70;;;18.70;;
61696;SDS011;47610;52.252;20.922;2022-12-07T01:37:44;32.70;;;17.60;;
61696;SDS011;47610;52.252;20.922;2022-12-07T01:43:11;40.00;;;19.40;;
61696;SDS011;47610;52.252;20.922;2022-12-07T01:48:38;32.90;;;16.10;;
61696;SDS011;47610;52.252;20.922;2022-12-07T02:12:26;19.90;;;11.40;;
61696;SDS011;47610;52.252;20.922;2022-12-07T02:17:49;26.30;;;12.70;;
61696;SDS011;47610;52.252;20.922;2022-12-07T02:23:31;20.90;;;12.10;;
61696;SDS011;47610;52.252;20.922;2022-12-07T02:29:25;18.10;;;8.90;;
61696;SDS011;47610;52.252;20.922;2022-12-07T02:34:52;14.90;;;8.40;;
61696;SDS011;47610;52.252;20.922;2022-12-07T02:40:27;11.20;;;6.50;;
61696;SDS011;47610;52.252;20.922;2022-12-07T02:45:58;13.00;;;7.10;;
61696;SDS011;47610;52.252;20.922;2022-12-07T02:51:29;11.20;;;6.90;;
61696;SDS011;47610;52.252;20.922;2022-12-07T02:56:55;10.30;;;6.40;;
61696;SDS011;47610;52.252;20.922;2022-12-07T03:02:24;13.00;;;6.50;;
61696;SDS011;47610;52.252;20.922;2022-12-07T03:08:01;11.70;;;6.00;;
61696;SDS011;47610;52.252;20.922;2022-12-07T03:13:30;14.00;;;6.20;;
61696;SDS011;47610;52.252;20.922;2022-12-07T03:19:06;9.20;;;5.70;;
61696;SDS011;47610;52.252;20.922;2022-12-07T03:24:35;11.10;;;6.70;;
61696;SDS011;47610;52.252;20.922;2022-12-07T03:30:02;12.80;;;7.10;;
61696;SDS011;47610;52.252;20.922;2022-12-07T03:35:34;11.70;;;6.50;;
61696;SDS011;47610;52.252;20.922;2022-12-07T03:41:03;12.70;;;7.10;;
61696;SDS011;47610;52.252;20.922;2022-12-07T03:46:32;11.40;;;7.00;;
61696;SDS011;47610;52.252;20.922;2022-12-07T03:52:07;13.30;;;6.70;;
61696;SDS011;47610;52.252;20.922;2022-12-07T03:57:41;9.00;;;5.30;;
61696;SDS011;47610;52.252;20.922;2022-12-07T04:03:07;10.30;;;5.50;;
61696;SDS011;47610;52.252;20.922;2022-12-07T04:08:31;8.60;;;4.80;;
61696;SDS011;47610;52.252;20.922;2022-12-07T04:13:54;6.90;;;4.50;;
61696;SDS011;47610;52.252;20.922;2022-12-07T04:19:17;9.00;;;4.80;;
61696;SDS011;47610;52.252;20.922;2022-12-07T04:31:07;7.90;;;5.10;;
61696;SDS011;47610;52.252;20.922;2022-12-07T04:36:29;11.40;;;5.80;;
61696;SDS011;47610;52.252;20.922;2022-12-07T04:41:52;7.40;;;4.50;;
61696;SDS011;47610;52.252;20.922;2022-12-07T04:47:14;9.10;;;5.30;;
61696;SDS011;47610;52.252;20.922;2022-12-07T04:52:37;7.30;;;4.70;;
61696;SDS011;47610;52.252;20.922;2022-12-07T04:57:59;8.00;;;4.80;;
61696;SDS011;47610;52.252;20.922;2022-12-07T05:03:22;8.70;;;5.10;;
61696;SDS011;47610;52.252;20.922;2022-12-07T05:08:46;7.70;;;5.00;;
61696;SDS011;47610;52.252;20.922;2022-12-07T05:14:13;8.20;;;4.60;;
61696;SDS011;47610;52.252;20.922;2022-12-07T05:19:37;9.40;;;5.30;;
61696;SDS011;47610;52.252;20.922;2022-12-07T05:24:59;8.00;;;5.10;;
61696;SDS011;47610;52.252;20.922;2022-12-07T05:30:25;7.10;;;4.70;;
61696;SDS011;47610;52.252;20.922;2022-12-07T05:35:49;6.90;;;4.50;;
61696;SDS011;47610;52.252;20.922;2022-12-07T05:41:13;7.30;;;4.20;;
61696;SDS011;47610;52.252;20.922;2022-12-07T05:46:37;7.20;;;4.80;;
61696;SDS011;47610;52.252;20.922;2022-12-07T05:52:00;9.70;;;5.30;;
61696;SDS011;47610;52.252;20.922;2022-12-07T05:57:24;9.10;;;5.00;;
61696;SDS011;47610;52.252;20.922;2022-12-07T06:02:46;7.30;;;4.70;;
61696;SDS011;47610;52.252;20.922;2022-12-07T06:08:08;7.40;;;4.80;;
61696;SDS011;47610;52.252;20.922;2022-12-07T06:13:30;7.50;;;4.40;;
61696;SDS011;47610;52.252;20.922;2022-12-07T06:18:52;7.60;;;4.40;;
61696;SDS011;47610;52.252;20.922;2022-12-07T06:24:14;7.60;;;4.60;;
61696;SDS011;47610;52.252;20.922;2022-12-07T06:29:40;8.20;;;5.30;;
61696;SDS011;47610;52.252;20.922;2022-12-07T06:35:05;7.70;;;4.90;;
61696;SDS011;47610;52.252;20.922;2022-12-07T06:44:27;6.60;;;4.00;;
61696;SDS011;47610;52.252;20.922;2022-12-07T06:49:50;8.30;;;4.70;;
61696;SDS011;47610;52.252;20.922;2022-12-07T06:55:15;9.30;;;4.90;;
61696;SDS011;47610;52.252;20.922;2022-12-07T07:00:39;8.80;;;5.30;;
61696;SDS011;47610;52.252;20.922;2022-12-07T07:06:04;7.10;;;4.50;;
61696;SDS011;47610;52.252;20.922;2022-12-07T07:11:28;8.90;;;5.00;;
61696;SDS011;47610;52.252;20.922;2022-12-07T07:16:50;7.70;;;5.00;;
61696;SDS011;47610;52.252;20.922;2022-12-07T07:22:14;7.70;;;4.90;;
61696;SDS011;47610;52.252;20.922;2022-12-07T07:27:36;8.70;;;5.20;;
61696;SDS011;47610;52.252;20.922;2022-12-07T07:33:01;8.90;;;4.50;;
61696;SDS011;47610;52.252;20.922;2022-12-07T07:38:25;7.70;;;4.60;;
61696;SDS011;47610;52.252;20.922;2022-12-07T07:43:48;10.30;;;4.90;;
61696;SDS011;47610;52.252;20.922;2022-12-07T07:49:11;7.50;;;4.40;;
61696;SDS011;47610;52.252;20.922;2022-12-07T07:54:34;9.00;;;4.70;;
61696;SDS011;47610;52.252;20.922;2022-12-07T07:59:57;10.00;;;5.60;;
61696;SDS011;47610;52.252;20.922;2022-12-07T08:05:20;11.00;;;6.40;;
61696;SDS011;47610;52.252;20.922;2022-12-07T08:10:44;9.20;;;5.10;;
61696;SDS011;47610;52.252;20.922;2022-12-07T08:16:08;9.60;;;5.70;;
61696;SDS011;47610;52.252;20.922;2022-12-07T08:21:32;11.70;;;5.70;;
61696;SDS011;47610;52.252;20.922;2022-12-07T08:26:55;9.50;;;5.90;;
61696;SDS011;47610;52.252;20.922;2022-12-07T08:32:19;10.60;;;6.30;;
61696;SDS011;47610;52.252;20.922;2022-12-07T08:37:42;12.10;;;6.60;;
61696;SDS011;47610;52.252;20.922;2022-12-07T08:43:05;11.60;;;6.80;;
61696;SDS011;47610;52.252;20.922;2022-12-07T08:48:27;9.30;;;5.30;;
61696;SDS011;47610;52.252;20.922;2022-12-07T09:12:25;18.00;;;8.70;;
61696;SDS011;47610;52.252;20.922;2022-12-07T09:17:47;15.10;;;8.00;;
61696;SDS011;47610;52.252;20.922;2022-12-07T09:23:07;14.60;;;8.20;;
61696;SDS011;47610;52.252;20.922;2022-12-07T09:28:29;13.00;;;7.40;;
61696;SDS011;47610;52.252;20.922;2022-12-07T09:33:53;15.50;;;9.00;;
61696;SDS011;47610;52.252;20.922;2022-12-07T09:44:36;16.00;;;8.20;;
61696;SDS011;47610;52.252;20.922;2022-12-07T09:50:03;13.50;;;7.40;;
61696;SDS011;47610;52.252;20.922;2022-12-07T09:55:28;30.30;;;15.40;;
61696;SDS011;47610;52.252;20.922;2022-12-07T10:00:51;17.60;;;8.10;;
61696;SDS011;47610;52.252;20.922;2022-12-07T10:06:16;16.60;;;7.60;;
61696;SDS011;47610;52.252;20.922;2022-12-07T10:17:29;16.90;;;8.80;;
61696;SDS011;47610;52.252;20.922;2022-12-07T10:22:59;17.00;;;8.70;;
61696;SDS011;47610;52.252;20.922;2022-12-07T10:28:22;17.20;;;8.50;;
61696;SDS011;47610;52.252;20.922;2022-12-07T10:33:53;15.40;;;8.00;;
61696;SDS011;47610;52.252;20.922;2022-12-07T10:39:18;11.70;;;7.10;;
61696;SDS011;47610;52.252;20.922;2022-12-07T10:44:40;17.90;;;7.90;;
61696;SDS011;47610;52.252;20.922;2022-12-07T10:50:17;15.10;;;8.60;;
61696;SDS011;47610;52.252;20.922;2022-12-07T11:04:15;16.70;;;9.20;;
61696;SDS011;47610;52.252;20.922;2022-12-07T11:09:59;12.80;;;7.60;;
61696;SDS011;47610;52.252;20.922;2022-12-07T11:21:00;13.70;;;7.70;;
61696;SDS011;47610;52.252;20.922;2022-12-07T11:26:41;16.00;;;8.80;;
61696;SDS011;47610;52.252;20.922;2022-12-07T11:32:21;15.50;;;8.10;;
61696;SDS011;47610;52.252;20.922;2022-12-07T11:37:57;16.40;;;8.60;;
61696;SDS011;47610;52.252;20.922;2022-12-07T11:43:28;15.80;;;9.60;;
61696;SDS011;47610;52.252;20.922;2022-12-07T11:48:54;15.50;;;8.60;;
61696;SDS011;47610;52.252;20.922;2022-12-07T11:54:23;14.80;;;8.80;;
61696;SDS011;47610;52.252;20.922;2022-12-07T11:59:56;15.60;;;8.70;;
61696;SDS011;47610;52.252;20.922;2022-12-07T12:05:22;11.90;;;7.60;;
61696;SDS011;47610;52.252;20.922;2022-12-07T12:10:52;13.30;;;8.40;;
61696;SDS011;47610;52.252;20.922;2022-12-07T12:16:22;65.20;;;39.20;;
61696;SDS011;47610;52.252;20.922;2022-12-07T12:22:12;19.30;;;11.10;;
61696;SDS011;47610;52.252;20.922;2022-12-07T12:27:38;14.60;;;8.30;;
61696;SDS011;47610;52.252;20.922;2022-12-07T12:33:13;13.50;;;8.60;;
61696;SDS011;47610;52.252;20.922;2022-12-07T12:38:51;20.20;;;8.10;;
61696;SDS011;47610;52.252;20.922;2022-12-07T12:44:43;12.60;;;7.20;;
61696;SDS011;47610;52.252;20.922;2022-12-07T12:50:40;16.40;;;8.40;;
61696;SDS011;47610;52.252;20.922;2022-12-07T12:56:20;12.30;;;7.20;;
61696;SDS011;47610;52.252;20.922;2022-12-07T13:02:10;11.40;;;6.90;;
61696;SDS011;47610;52.252;20.922;2022-12-07T13:07:54;12.10;;;7.60;;
61696;SDS011;47610;52.252;20.922;2022-12-07T13:23:01;11.50;;;6.30;;
61696;SDS011;47610;52.252;20.922;2022-12-07T13:28:27;10.80;;;6.60;;
61696;SDS011;47610;52.252;20.922;2022-12-07T13:33:56;10.20;;;6.80;;
61696;SDS011;47610;52.252;20.922;2022-12-07T13:39:19;10.70;;;6.30;;
61696;SDS011;47610;52.252;20.922;2022-12-07T13:44:44;10.60;;;6.20;;
61696;SDS011;47610;52.252;20.922;2022-12-07T13:55:51;11.80;;;7.00;;
61696;SDS011;47610;52.252;20.922;2022-12-07T14:01:15;15.50;;;7.80;;
61696;SDS011;47610;52.252;20.922;2022-12-07T14:06:37;13.80;;;8.70;;
61696;SDS011;47610;52.252;20.922;2022-12-07T14:12:11;13.40;;;8.70;;
61696;SDS011;47610;52.252;20.922;2022-12-07T14:17:34;15.30;;;8.60;;
61696;SDS011;47610;52.252;20.922;2022-12-07T14:23:22;16.40;;;9.90;;
61696;SDS011;47610;52.252;20.922;2022-12-07T14:28:46;14.10;;;8.90;;
61696;SDS011;47610;52.252;20.922;2022-12-07T14:34:12;15.30;;;9.20;;
61696;SDS011;47610;52.252;20.922;2022-12-07T14:39:34;13.00;;;8.80;;
61696;SDS011;47610;52.252;20.922;2022-12-07T14:44:57;14.50;;;8.90;;
61696;SDS011;47610;52.252;20.922;2022-12-07T14:50:20;16.10;;;9.40;;
61696;SDS011;47610;52.252;20.922;2022-12-07T14:55:42;16.10;;;10.30;;
61696;SDS011;47610;52.252;20.922;2022-12-07T15:01:05;15.40;;;10.80;;
61696;SDS011;47610;52.252;20.922;2022-12-07T15:06:27;17.10;;;10.90;;
61696;SDS011;47610;52.252;20.922;2022-12-07T15:11:49;14.30;;;9.30;;
61696;SDS011;47610;52.252;20.922;2022-12-07T15:17:12;17.10;;;10.20;;
61696;SDS011;47610;52.252;20.922;2022-12-07T15:22:36;23.10;;;13.20;;
61696;SDS011;47610;52.252;20.922;2022-12-07T15:27:59;19.90;;;12.00;;
61696;SDS011;47610;52.252;20.922;2022-12-07T15:33:22;19.50;;;11.60;;
61696;SDS011;47610;52.252;20.922;2022-12-07T15:38:44;18.40;;;10.10;;
61696;SDS011;47610;52.252;20.922;2022-12-07T15:44:08;16.50;;;10.10;;
61696;SDS011;47610;52.252;20.922;2022-12-07T15:54:52;14.60;;;9.50;;
61696;SDS011;47610;52.252;20.922;2022-12-07T16:00:17;18.50;;;10.30;;
61696;SDS011;47610;52.252;20.922;2022-12-07T16:23:01;17.70;;;10.70;;
61696;SDS011;47610;52.252;20.922;2022-12-07T16:28:24;16.10;;;9.00;;
61696;SDS011;47610;52.252;20.922;2022-12-07T16:33:46;17.30;;;10.30;;
61696;SDS011;47610;52.252;20.922;2022-12-07T16:39:09;19.40;;;10.80;;
61696;SDS011;47610;52.252;20.922;2022-12-07T16:44:31;26.30;;;11.00;;
61696;SDS011;47610;52.252;20.922;2022-12-07T16:49:53;16.50;;;10.60;;
61696;SDS011;47610;52.252;20.922;2022-12-07T16:55:15;16.80;;;9.30;;
61696;SDS011;47610;52.252;20.922;2022-12-07T17:00:37;19.40;;;10.80;;
61696;SDS011;47610;52.252;20.922;2022-12-07T17:06:00;19.50;;;10.80;;
61696;SDS011;47610;52.252;20.922;2022-12-07T17:11:22;19.70;;;11.80;;
61696;SDS011;47610;52.252;20.922;2022-12-07T17:16:46;20.00;;;11.50;;
61696;SDS011;47610;52.252;20.922;2022-12-07T17:22:08;17.80;;;10.50;;
61696;SDS011;47610;52.252;20.922;2022-12-07T17:27:30;17.70;;;11.10;;
61696;SDS011;47610;52.252;20.922;2022-12-07T17:32:52;19.30;;;10.80;;
61696;SDS011;47610;52.252;20.922;2022-12-07T17:38:14;15.20;;;9.30;;
61696;SDS011;47610;52.252;20.922;2022-12-07T17:43:36;15.60;;;10.20;;
61696;SDS011;47610;52.252;20.922;2022-12-07T17:48:58;15.40;;;9.80;;
61696;SDS011;47610;52.252;20.922;2022-12-07T17:54:20;16.30;;;10.30;;
61696;SDS011;47610;52.252;20.922;2022-12-07T17:59:42;15.50;;;9.00;;
61696;SDS011;47610;52.252;20.922;2022-12-07T18:05:05;16.60;;;9.40;;
61696;SDS011;47610;52.252;20.922;2022-12-07T18:10:28;13.30;;;9.10;;
61696;SDS011;47610;52.252;20.922;2022-12-07T18:15:55;15.30;;;9.50;;
61696;SDS011;47610;52.252;20.922;2022-12-07T18:21:18;13.00;;;8.90;;
61696;SDS011;47610;52.252;20.922;2022-12-07T18:26:41;9.10;;;4.00;;
61696;SDS011;47610;52.252;20.922;2022-12-07T18:50:38;5.80;;;3.70;;
61696;SDS011;47610;52.252;20.922;2022-12-07T18:56:03;8.00;;;4.90;;
61696;SDS011;47610;52.252;20.922;2022-12-07T19:01:27;9.00;;;5.90;;
61696;SDS011;47610;52.252;20.922;2022-12-07T19:06:50;12.70;;;6.90;;
61696;SDS011;47610;52.252;20.922;2022-12-07T19:12:12;13.10;;;8.10;;
61696;SDS011;47610;52.252;20.922;2022-12-07T19:17:35;11.00;;;7.60;;
61696;SDS011;47610;52.252;20.922;2022-12-07T19:22:58;14.20;;;7.90;;
61696;SDS011;47610;52.252;20.922;2022-12-07T19:28:20;9.30;;;6.10;;
61696;SDS011;47610;52.252;20.922;2022-12-07T19:33:42;10.30;;;6.30;;
61696;SDS011;47610;52.252;20.922;2022-12-07T19:39:05;8.40;;;5.50;;
61696;SDS011;47610;52.252;20.922;2022-12-07T19:44:27;9.80;;;6.70;;
61696;SDS011;47610;52.252;20.922;2022-12-07T19:49:49;12.70;;;5.80;;
61696;SDS011;47610;52.252;20.922;2022-12-07T19:55:12;11.20;;;6.80;;
61696;SDS011;47610;52.252;20.922;2022-12-07T20:00:35;11.60;;;7.80;;
61696;SDS011;47610;52.252;20.922;2022-12-07T20:05:57;9.90;;;6.50;;
61696;SDS011;47610;52.252;20.922;2022-12-07T20:11:21;10.00;;;6.20;;
61696;SDS011;47610;52.252;20.922;2022-12-07T20:16:44;11.80;;;7.10;;
61696;SDS011;47610;52.252;20.922;2022-12-07T20:22:07;12.30;;;6.70;;
61696;SDS011;47610;52.252;20.922;2022-12-07T20:27:30;11.50;;;7.00;;
61696;SDS011;47610;52.252;20.922;2022-12-07T20:32:53;12.00;;;6.40;;
61696;SDS011;47610;52.252;20.922;2022-12-07T20:38:15;13.20;;;6.90;;
61696;SDS011;47610;52.252;20.922;2022-12-07T20:43:38;9.80;;;6.50;;
61696;SDS011;47610;52.252;20.922;2022-12-07T20:49:00;9.20;;;6.50;;
61696;SDS011;47610;52.252;20.922;2022-12-07T20:54:23;10.20;;;6.30;;
61696;SDS011;47610;52.252;20.922;2022-12-07T21:10:28;9.00;;;5.00;;
61696;SDS011;47610;52.252;20.922;2022-12-07T21:15:51;10.00;;;5.30;;
61696;SDS011;47610;52.252;20.922;2022-12-07T21:21:13;9.50;;;5.30;;
61696;SDS011;47610;52.252;20.922;2022-12-07T21:26:37;7.60;;;4.80;;
61696;SDS011;47610;52.252;20.922;2022-12-07T21:32:01;10.80;;;4.90;;
61696;SDS011;47610;52.252;20.922;2022-12-07T21:37:25;8.50;;;4.50;;
61696;SDS011;47610;52.252;20.922;2022-12-07T21:42:49;6.10;;;3.90;;
61696;SDS011;47610;52.252;20.922;2022-12-07T21:53:37;7.60;;;4.30;;
61696;SDS011;47610;52.252;20.922;2022-12-07T21:59:03;6.30;;;3.90;;
61696;SDS011;47610;52.252;20.922;2022-12-07T22:04:28;8.50;;;5.10;;
61696;SDS011;47610;52.252;20.922;2022-12-07T22:09:51;7.00;;;4.00;;
61696;SDS011;47610;52.252;20.922;2022-12-07T22:15:15;7.70;;;4.50;;
61696;SDS011;47610;52.252;20.922;2022-12-07T22:20:38;8.60;;;4.60;;
61696;SDS011;47610;52.252;20.922;2022-12-07T22:26:04;8.80;;;4.50;;
61696;SDS011;47610;52.252;20.922;2022-12-07T22:31:28;20.50;;;9.10;;
61696;SDS011;47610;52.252;20.922;2022-12-07T22:36:51;14.90;;;8.30;;
61696;SDS011;47610;52.252;20.922;2022-12-07T22:42:13;10.50;;;5.50;;
61696;SDS011;47610;52.252;20.922;2022-12-07T22:47:36;9.10;;;5.20;;
61696;SDS011;47610;52.252;20.922;2022-12-07T22:53:01;9.70;;;4.60;;
61696;SDS011;47610;52.252;20.922;2022-12-07T22:58:24;8.80;;;5.30;;
61696;SDS011;47610;52.252;20.922;2022-12-07T23:03:47;11.20;;;6.10;;
61696;SDS011;47610;52.252;20.922;2022-12-07T23:09:10;10.90;;;5.60;;
61696;SDS011;47610;52.252;20.922;2022-12-07T23:14:33;8.20;;;5.10;;
61696;SDS011;47610;52.252;20.922;2022-12-07T23:23:48;9.80;;;5.80;;
61696;SDS011;47610;52.252;20.922;2022-12-07T23:29:11;10.70;;;6.10;;
61696;SDS011;47610;52.252;20.922;2022-12-07T23:34:34;10.20;;;5.90;;
61696;SDS011;47610;52.252;20.922;2022-12-07T23:39:58;11.00;;;5.40;;
61696;SDS011;47610;52.252;20.922;2022-12-07T23:45:21;11.40;;;6.30;;
61696;SDS011;47610;52.252;20.922;2022-12-07T23:50:43;11.50;;;6.10;;
61696;SDS011;47610;52.252;20.922;2022-12-07T23:56:09;9.90;;;5.30;;
